sensor_id;sensor_type;location;lat;lon;timestamp;pressure;altitude;pressure_sealevel;temperature;humidity
77590;BME280;66746;51.328;12.332;2023-03-14T00:01:48;98235.75;;;10.05;88.45
77590;BME280;66746;51.328;12.332;2023-03-14T00:04:14;98227.13;;;10.00;89.04
77590;BME280;66746;51.328;12.332;2023-03-14T00:06:41;98212.81;;;9.98;88.42
77590;BME280;66746;51.328;12.332;2023-03-14T00:09:07;98221.88;;;9.97;88.99
77590;BME280;66746;51.328;12.332;2023-03-14T00:11:34;98202.63;;;9.89;89.04
77590;BME280;66746;51.328;12.332;2023-03-14T00:14:00;98212.06;;;9.96;89.00
77590;BME280;66746;51.328;12.332;2023-03-14T00:16:29;98190.81;;;9.90;88.49
77590;BME280;66746;51.328;12.332;2023-03-14T00:19:01;98224.75;;;10.08;89.16
77590;BME280;66746;51.328;12.332;2023-03-14T00:21:28;98227.34;;;10.09;89.14
77590;BME280;66746;51.328;12.332;2023-03-14T00:23:54;98226.69;;;10.06;88.61
77590;BME280;66746;51.328;12.332;2023-03-14T00:26:27;98242.72;;;10.09;88.41
77590;BME280;66746;51.328;12.332;2023-03-14T00:28:57;98239.47;;;10.04;88.76
77590;BME280;66746;51.328;12.332;2023-03-14T00:31:23;98219.84;;;9.88;89.76
77590;BME280;66746;51.328;12.332;2023-03-14T00:33:57;98247.47;;;9.93;89.33
77590;BME280;66746;51.328;12.332;2023-03-14T00:36:32;98249.84;;;9.97;88.40
77590;BME280;66746;51.328;12.332;2023-03-14T00:39:02;98262.38;;;9.86;89.06
77590;BME280;66746;51.328;12.332;2023-03-14T00:41:30;98282.97;;;9.88;89.16
77590;BME280;66746;51.328;12.332;2023-03-14T00:43:57;98278.84;;;9.82;89.35
77590;BME280;66746;51.328;12.332;2023-03-14T00:46:26;98248.72;;;9.74;89.17
77590;BME280;66746;51.328;12.332;2023-03-14T00:48:55;98266.69;;;9.75;89.70
77590;BME280;66746;51.328;12.332;2023-03-14T00:51:30;98244.78;;;9.66;89.55
77590;BME280;66746;51.328;12.332;2023-03-14T00:53:59;98259.13;;;9.80;89.12
77590;BME280;66746;51.328;12.332;2023-03-14T00:56:30;98255.84;;;9.75;89.42
77590;BME280;66746;51.328;12.332;2023-03-14T00:58:57;98246.13;;;9.73;88.90
77590;BME280;66746;51.328;12.332;2023-03-14T01:01:27;98258.91;;;9.83;88.69
77590;BME280;66746;51.328;12.332;2023-03-14T01:03:57;98258.50;;;9.90;88.75
77590;BME280;66746;51.328;12.332;2023-03-14T01:06:32;98264.22;;;10.12;86.27
77590;BME280;66746;51.328;12.332;2023-03-14T01:09:01;98278.28;;;10.17;85.99
77590;BME280;66746;51.328;12.332;2023-03-14T01:11:29;98288.50;;;10.26;85.71
77590;BME280;66746;51.328;12.332;2023-03-14T01:13:57;98265.09;;;10.25;85.84
77590;BME280;66746;51.328;12.332;2023-03-14T01:16:31;98290.03;;;10.30;85.47
77590;BME280;66746;51.328;12.332;2023-03-14T01:19:00;98291.97;;;10.28;85.48
77590;BME280;66746;51.328;12.332;2023-03-14T01:21:28;98290.44;;;10.24;85.52
77590;BME280;66746;51.328;12.332;2023-03-14T01:23:59;98298.47;;;10.25;85.58
77590;BME280;66746;51.328;12.332;2023-03-14T01:26:31;98275.28;;;10.21;85.07
77590;BME280;66746;51.328;12.332;2023-03-14T01:29:00;98288.28;;;10.29;84.91
77590;BME280;66746;51.328;12.332;2023-03-14T01:31:29;98289.56;;;10.36;84.65
77590;BME280;66746;51.328;12.332;2023-03-14T01:33:57;98298.69;;;10.35;83.99
77590;BME280;66746;51.328;12.332;2023-03-14T01:36:24;98294.78;;;10.39;83.55
77590;BME280;66746;51.328;12.332;2023-03-14T01:38:53;98303.88;;;10.38;83.79
77590;BME280;66746;51.328;12.332;2023-03-14T01:41:25;98297.41;;;10.28;83.97
77590;BME280;66746;51.328;12.332;2023-03-14T01:43:59;98294.16;;;10.35;84.26
77590;BME280;66746;51.328;12.332;2023-03-14T01:46:32;98272.91;;;10.29;83.88
77590;BME280;66746;51.328;12.332;2023-03-14T01:49:07;98275.91;;;10.25;83.94
77590;BME280;66746;51.328;12.332;2023-03-14T01:51:42;98272.75;;;10.18;83.84
77590;BME280;66746;51.328;12.332;2023-03-14T01:54:16;98272.34;;;10.12;84.24
77590;BME280;66746;51.328;12.332;2023-03-14T01:56:50;98285.22;;;10.21;83.60
77590;BME280;66746;51.328;12.332;2023-03-14T01:59:19;98283.94;;;10.14;84.76
77590;BME280;66746;51.328;12.332;2023-03-14T02:01:47;98276.34;;;10.19;83.83
77590;BME280;66746;51.328;12.332;2023-03-14T02:04:17;98267.03;;;10.23;83.85
77590;BME280;66746;51.328;12.332;2023-03-14T02:06:49;98262.38;;;10.25;84.00
77590;BME280;66746;51.328;12.332;2023-03-14T02:09:17;98255.56;;;10.19;83.90
77590;BME280;66746;51.328;12.332;2023-03-14T02:11:44;98252.84;;;10.19;84.53
77590;BME280;66746;51.328;12.332;2023-03-14T02:14:32;98257.03;;;10.11;84.09
77590;BME280;66746;51.328;12.332;2023-03-14T02:17:18;98248.59;;;10.15;83.18
77590;BME280;66746;51.328;12.332;2023-03-14T02:20:21;98249.50;;;10.16;83.33
77590;BME280;66746;51.328;12.332;2023-03-14T02:22:57;98247.53;;;10.18;83.22
77590;BME280;66746;51.328;12.332;2023-03-14T02:25:33;98232.06;;;10.20;82.39
77590;BME280;66746;51.328;12.332;2023-03-14T02:28:06;98229.53;;;10.17;82.93
77590;BME280;66746;51.328;12.332;2023-03-14T02:30:33;98223.25;;;10.16;83.27
77590;BME280;66746;51.328;12.332;2023-03-14T02:33:03;98219.34;;;10.20;82.00
77590;BME280;66746;51.328;12.332;2023-03-14T02:35:36;98184.91;;;10.10;81.93
77590;BME280;66746;51.328;12.332;2023-03-14T02:38:10;98204.19;;;10.18;82.60
77590;BME280;66746;51.328;12.332;2023-03-14T02:40:42;98194.19;;;10.06;83.06
77590;BME280;66746;51.328;12.332;2023-03-14T02:43:11;98177.94;;;10.06;81.83
77590;BME280;66746;51.328;12.332;2023-03-14T02:45:43;98198.66;;;10.19;82.06
77590;BME280;66746;51.328;12.332;2023-03-14T02:48:16;98183.72;;;10.14;81.73
77590;BME280;66746;51.328;12.332;2023-03-14T02:50:46;98181.09;;;10.12;81.29
77590;BME280;66746;51.328;12.332;2023-03-14T02:53:18;98193.03;;;10.10;81.44
77590;BME280;66746;51.328;12.332;2023-03-14T02:55:46;98174.47;;;10.04;81.39
77590;BME280;66746;51.328;12.332;2023-03-14T02:58:16;98183.94;;;10.11;82.05
77590;BME280;66746;51.328;12.332;2023-03-14T03:00:45;98174.72;;;10.13;81.47
77590;BME280;66746;51.328;12.332;2023-03-14T03:03:12;98183.50;;;10.17;81.28
77590;BME280;66746;51.328;12.332;2023-03-14T03:05:39;98186.44;;;10.14;81.01
77590;BME280;66746;51.328;12.332;2023-03-14T03:08:06;98178.06;;;10.17;81.27
77590;BME280;66746;51.328;12.332;2023-03-14T03:10:34;98186.00;;;10.20;80.93
77590;BME280;66746;51.328;12.332;2023-03-14T03:13:00;98184.06;;;10.22;80.74
77590;BME280;66746;51.328;12.332;2023-03-14T03:15:30;98181.66;;;10.17;80.27
77590;BME280;66746;51.328;12.332;2023-03-14T03:17:59;98203.97;;;10.21;80.66
77590;BME280;66746;51.328;12.332;2023-03-14T03:20:30;98187.97;;;10.18;80.25
77590;BME280;66746;51.328;12.332;2023-03-14T03:22:58;98190.84;;;10.15;80.09
77590;BME280;66746;51.328;12.332;2023-03-14T03:25:30;98170.94;;;10.16;78.55
77590;BME280;66746;51.328;12.332;2023-03-14T03:27:59;98179.81;;;10.30;78.71
77590;BME280;66746;51.328;12.332;2023-03-14T03:30:30;98180.81;;;10.29;77.72
77590;BME280;66746;51.328;12.332;2023-03-14T03:32:59;98149.59;;;10.24;77.86
77590;BME280;66746;51.328;12.332;2023-03-14T03:35:30;98154.03;;;10.25;78.41
77590;BME280;66746;51.328;12.332;2023-03-14T03:37:58;98166.81;;;10.23;77.27
77590;BME280;66746;51.328;12.332;2023-03-14T03:40:26;98145.91;;;10.12;77.16
77590;BME280;66746;51.328;12.332;2023-03-14T03:42:59;98130.75;;;10.10;77.85
77590;BME280;66746;51.328;12.332;2023-03-14T03:45:34;98148.94;;;10.20;78.23
77590;BME280;66746;51.328;12.332;2023-03-14T03:48:01;98146.34;;;10.19;78.07
77590;BME280;66746;51.328;12.332;2023-03-14T03:50:30;98132.03;;;10.17;76.94
77590;BME280;66746;51.328;12.332;2023-03-14T03:53:00;98121.63;;;10.11;78.20
77590;BME280;66746;51.328;12.332;2023-03-14T03:55:31;98125.09;;;10.13;77.63
77590;BME280;66746;51.328;12.332;2023-03-14T03:58:00;98135.94;;;10.13;78.29
77590;BME280;66746;51.328;12.332;2023-03-14T04:00:31;98135.19;;;10.11;77.33
77590;BME280;66746;51.328;12.332;2023-03-14T04:03:00;98135.06;;;10.00;78.23
77590;BME280;66746;51.328;12.332;2023-03-14T04:05:30;98126.19;;;9.98;78.19
77590;BME280;66746;51.328;12.332;2023-03-14T04:08:02;98133.97;;;10.02;77.38
77590;BME280;66746;51.328;12.332;2023-03-14T04:10:29;98124.41;;;9.97;77.73
77590;BME280;66746;51.328;12.332;2023-03-14T04:13:28;98125.94;;;10.01;78.46
77590;BME280;66746;51.328;12.332;2023-03-14T04:15:59;98118.16;;;9.83;78.86
77590;BME280;66746;51.328;12.332;2023-03-14T04:18:27;98123.56;;;9.83;77.41
77590;BME280;66746;51.328;12.332;2023-03-14T04:20:59;98139.59;;;9.99;77.50
77590;BME280;66746;51.328;12.332;2023-03-14T04:23:35;98139.91;;;9.95;78.76
77590;BME280;66746;51.328;12.332;2023-03-14T04:26:01;98143.72;;;9.92;78.92
77590;BME280;66746;51.328;12.332;2023-03-14T04:28:31;98117.94;;;9.99;78.38
77590;BME280;66746;51.328;12.332;2023-03-14T04:31:06;98128.25;;;9.94;78.95
77590;BME280;66746;51.328;12.332;2023-03-14T04:33:33;98111.88;;;9.83;79.46
77590;BME280;66746;51.328;12.332;2023-03-14T04:35:59;98109.84;;;9.87;79.04
77590;BME280;66746;51.328;12.332;2023-03-14T04:38:26;98088.06;;;9.75;78.96
77590;BME280;66746;51.328;12.332;2023-03-14T04:40:55;98105.81;;;9.79;78.95
77590;BME280;66746;51.328;12.332;2023-03-14T04:43:32;98105.25;;;9.87;78.85
77590;BME280;66746;51.328;12.332;2023-03-14T04:46:05;98084.91;;;9.81;79.63
77590;BME280;66746;51.328;12.332;2023-03-14T04:48:32;98091.31;;;9.80;79.28
77590;BME280;66746;51.328;12.332;2023-03-14T04:51:00;98091.31;;;9.80;79.18
77590;BME280;66746;51.328;12.332;2023-03-14T04:53:30;98085.34;;;9.75;79.37
77590;BME280;66746;51.328;12.332;2023-03-14T04:56:00;98083.06;;;9.69;79.66
77590;BME280;66746;51.328;12.332;2023-03-14T04:58:34;98078.75;;;9.79;79.28
77590;BME280;66746;51.328;12.332;2023-03-14T05:01:02;98087.84;;;9.78;79.34
77590;BME280;66746;51.328;12.332;2023-03-14T05:03:46;98073.22;;;9.68;78.53
77590;BME280;66746;51.328;12.332;2023-03-14T05:06:18;98067.94;;;9.67;78.87
77590;BME280;66746;51.328;12.332;2023-03-14T05:09:00;98073.56;;;9.76;79.80
77590;BME280;66746;51.328;12.332;2023-03-14T05:11:39;98057.09;;;9.79;77.82
77590;BME280;66746;51.328;12.332;2023-03-14T05:14:20;98056.44;;;9.89;77.75
77590;BME280;66746;51.328;12.332;2023-03-14T05:16:59;98042.03;;;9.75;78.42
77590;BME280;66746;51.328;12.332;2023-03-14T05:19:46;98054.50;;;9.91;77.73
77590;BME280;66746;51.328;12.332;2023-03-14T05:22:41;98060.88;;;9.90;77.77
77590;BME280;66746;51.328;12.332;2023-03-14T05:25:30;98073.00;;;9.84;78.22
77590;BME280;66746;51.328;12.332;2023-03-14T05:28:16;98062.09;;;9.73;78.35
77590;BME280;66746;51.328;12.332;2023-03-14T05:30:50;98071.81;;;9.75;79.67
77590;BME280;66746;51.328;12.332;2023-03-14T05:33:40;98065.13;;;9.68;79.23
77590;BME280;66746;51.328;12.332;2023-03-14T05:36:31;98050.50;;;9.58;78.93
77590;BME280;66746;51.328;12.332;2023-03-14T05:39:06;98067.38;;;9.74;77.99
77590;BME280;66746;51.328;12.332;2023-03-14T05:41:51;98052.75;;;9.77;78.12
77590;BME280;66746;51.328;12.332;2023-03-14T05:44:36;98057.53;;;9.73;78.60
77590;BME280;66746;51.328;12.332;2023-03-14T05:47:24;98054.50;;;9.65;77.83
77590;BME280;66746;51.328;12.332;2023-03-14T05:50:13;98050.94;;;9.65;78.93
77590;BME280;66746;51.328;12.332;2023-03-14T05:53:00;98061.88;;;9.76;78.13
77590;BME280;66746;51.328;12.332;2023-03-14T05:55:40;98054.50;;;9.65;78.40
77590;BME280;66746;51.328;12.332;2023-03-14T05:58:14;98056.44;;;9.63;78.43
77590;BME280;66746;51.328;12.332;2023-03-14T06:00:51;98071.81;;;9.75;77.65
77590;BME280;66746;51.328;12.332;2023-03-14T06:03:47;98082.22;;;9.81;78.66
77590;BME280;66746;51.328;12.332;2023-03-14T06:06:13;98072.56;;;9.77;77.83
77590;BME280;66746;51.328;12.332;2023-03-14T06:08:41;98084.38;;;9.76;77.71
77590;BME280;66746;51.328;12.332;2023-03-14T06:11:10;98100.41;;;9.79;78.49
77590;BME280;66746;51.328;12.332;2023-03-14T06:13:37;98107.31;;;9.83;78.63
77590;BME280;66746;51.328;12.332;2023-03-14T06:16:04;98102.22;;;9.79;77.88
77590;BME280;66746;51.328;12.332;2023-03-14T06:18:31;98099.53;;;9.79;78.56
77590;BME280;66746;51.328;12.332;2023-03-14T06:20:59;98098.88;;;9.75;79.45
77590;BME280;66746;51.328;12.332;2023-03-14T06:23:32;98109.50;;;9.78;78.99
77590;BME280;66746;51.328;12.332;2023-03-14T06:26:00;98102.91;;;9.82;77.74
77590;BME280;66746;51.328;12.332;2023-03-14T06:28:30;98099.31;;;9.82;77.38
77590;BME280;66746;51.328;12.332;2023-03-14T06:31:00;98106.69;;;9.93;78.07
77590;BME280;66746;51.328;12.332;2023-03-14T06:33:32;98094.88;;;9.94;77.23
77590;BME280;66746;51.328;12.332;2023-03-14T06:35:59;98087.00;;;9.91;77.81
77590;BME280;66746;51.328;12.332;2023-03-14T06:38:28;98093.38;;;9.90;77.97
77590;BME280;66746;51.328;12.332;2023-03-14T06:41:01;98091.19;;;9.95;77.23
77590;BME280;66746;51.328;12.332;2023-03-14T06:43:34;98098.88;;;10.01;77.02
77590;BME280;66746;51.328;12.332;2023-03-14T06:46:01;98093.69;;;9.85;77.89
77590;BME280;66746;51.328;12.332;2023-03-14T06:48:30;98116.84;;;10.02;77.12
77590;BME280;66746;51.328;12.332;2023-03-14T06:50:59;98119.34;;;10.05;76.92
77590;BME280;66746;51.328;12.332;2023-03-14T06:53:25;98116.44;;;10.08;76.73
77590;BME280;66746;51.328;12.332;2023-03-14T06:55:55;98113.41;;;10.12;75.83
77590;BME280;66746;51.328;12.332;2023-03-14T06:58:26;98106.16;;;10.13;75.68
77590;BME280;66746;51.328;12.332;2023-03-14T07:00:57;98125.09;;;10.13;76.78
77590;BME280;66746;51.328;12.332;2023-03-14T07:03:29;98120.78;;;10.23;75.59
77590;BME280;66746;51.328;12.332;2023-03-14T07:05:59;98123.34;;;10.24;75.49
77590;BME280;66746;51.328;12.332;2023-03-14T07:08:32;98111.88;;;10.21;75.86
77590;BME280;66746;51.328;12.332;2023-03-14T07:11:00;98121.09;;;10.31;74.36
77590;BME280;66746;51.328;12.332;2023-03-14T07:13:27;98110.38;;;10.29;74.52
77590;BME280;66746;51.328;12.332;2023-03-14T07:16:02;98110.69;;;10.37;73.98
77590;BME280;66746;51.328;12.332;2023-03-14T07:18:29;98098.66;;;10.41;74.41
77590;BME280;66746;51.328;12.332;2023-03-14T07:20:59;98104.47;;;10.48;73.04
77590;BME280;66746;51.328;12.332;2023-03-14T07:23:25;98102.50;;;10.50;74.35
77590;BME280;66746;51.328;12.332;2023-03-14T07:25:56;98084.75;;;10.46;72.85
77590;BME280;66746;51.328;12.332;2023-03-14T07:28:28;98098.84;;;10.51;74.79
77590;BME280;66746;51.328;12.332;2023-03-14T07:31:08;98073.56;;;10.50;73.64
77590;BME280;66746;51.328;12.332;2023-03-14T07:33:36;98085.84;;;10.67;73.85
77590;BME280;66746;51.328;12.332;2023-03-14T07:36:04;98072.09;;;10.70;73.41
77590;BME280;66746;51.328;12.332;2023-03-14T07:38:30;98082.78;;;10.84;72.85
77590;BME280;66746;51.328;12.332;2023-03-14T07:41:35;98068.22;;;10.85;72.12
77590;BME280;66746;51.328;12.332;2023-03-14T07:44:20;98099.72;;;10.99;72.03
77590;BME280;66746;51.328;12.332;2023-03-14T07:46:48;98091.50;;;11.00;71.19
77590;BME280;66746;51.328;12.332;2023-03-14T07:49:14;98098.19;;;11.07;73.01
77590;BME280;66746;51.328;12.332;2023-03-14T07:51:41;98083.00;;;11.05;72.37
77590;BME280;66746;51.328;12.332;2023-03-14T07:54:07;98094.25;;;11.11;71.22
77590;BME280;66746;51.328;12.332;2023-03-14T07:56:34;98104.09;;;11.36;70.13
77590;BME280;66746;51.328;12.332;2023-03-14T07:59:00;98110.84;;;11.30;72.07
77590;BME280;66746;51.328;12.332;2023-03-14T08:01:29;98113.34;;;11.33;71.40
77590;BME280;66746;51.328;12.332;2023-03-14T08:03:57;98108.19;;;11.41;69.71
77590;BME280;66746;51.328;12.332;2023-03-14T08:06:27;98104.22;;;11.34;70.48
77590;BME280;66746;51.328;12.332;2023-03-14T08:08:56;98098.63;;;11.25;70.19
77590;BME280;66746;51.328;12.332;2023-03-14T08:11:29;98105.44;;;11.30;70.62
77590;BME280;66746;51.328;12.332;2023-03-14T08:14:02;98097.81;;;11.35;70.54
77590;BME280;66746;51.328;12.332;2023-03-14T08:16:30;98080.09;;;11.53;71.06
77590;BME280;66746;51.328;12.332;2023-03-14T08:18:58;98097.34;;;11.87;67.79
77590;BME280;66746;51.328;12.332;2023-03-14T08:21:26;98091.22;;;11.62;68.11
77590;BME280;66746;51.328;12.332;2023-03-14T08:23:54;98093.78;;;11.52;69.00
77590;BME280;66746;51.328;12.332;2023-03-14T08:26:29;98095.13;;;11.46;69.76
77590;BME280;66746;51.328;12.332;2023-03-14T08:28:56;98088.50;;;11.62;71.29
77590;BME280;66746;51.328;12.332;2023-03-14T08:31:27;98086.63;;;11.75;69.37
77590;BME280;66746;51.328;12.332;2023-03-14T08:33:53;98097.22;;;11.89;69.03
77590;BME280;66746;51.328;12.332;2023-03-14T08:36:31;98096.63;;;11.85;68.86
77590;BME280;66746;51.328;12.332;2023-03-14T08:38:58;98099.47;;;11.95;69.39
77590;BME280;66746;51.328;12.332;2023-03-14T08:41:25;98088.47;;;11.96;69.54
77590;BME280;66746;51.328;12.332;2023-03-14T08:43:51;98082.94;;;11.98;69.04
77590;BME280;66746;51.328;12.332;2023-03-14T08:46:18;98083.03;;;11.96;69.39
77590;BME280;66746;51.328;12.332;2023-03-14T08:48:44;98095.56;;;12.10;69.15
77590;BME280;66746;51.328;12.332;2023-03-14T08:51:12;98090.13;;;12.10;67.17
77590;BME280;66746;51.328;12.332;2023-03-14T08:53:41;98091.34;;;12.17;66.51
77590;BME280;66746;51.328;12.332;2023-03-14T08:56:08;98086.75;;;12.06;66.87
77590;BME280;66746;51.328;12.332;2023-03-14T08:58:35;98100.47;;;12.16;65.80
77590;BME280;66746;51.328;12.332;2023-03-14T09:01:01;98100.47;;;12.16;65.81
77590;BME280;66746;51.328;12.332;2023-03-14T09:03:28;98078.75;;;11.94;67.74
77590;BME280;66746;51.328;12.332;2023-03-14T09:05:55;98109.22;;;12.08;66.96
77590;BME280;66746;51.328;12.332;2023-03-14T09:08:31;98102.69;;;12.11;68.45
77590;BME280;66746;51.328;12.332;2023-03-14T09:10:59;98106.91;;;12.04;67.29
77590;BME280;66746;51.328;12.332;2023-03-14T09:13:30;98107.75;;;12.04;67.27
77590;BME280;66746;51.328;12.332;2023-03-14T09:16:00;98111.69;;;12.00;67.45
77590;BME280;66746;51.328;12.332;2023-03-14T09:18:28;98108.13;;;12.00;68.63
77590;BME280;66746;51.328;12.332;2023-03-14T09:21:00;98101.94;;;12.20;67.71
77590;BME280;66746;51.328;12.332;2023-03-14T09:23:27;98109.63;;;12.15;66.65
77590;BME280;66746;51.328;12.332;2023-03-14T09:26:01;98105.41;;;12.11;67.23
77590;BME280;66746;51.328;12.332;2023-03-14T09:28:30;98110.84;;;12.00;67.10
77590;BME280;66746;51.328;12.332;2023-03-14T09:30:59;98112.81;;;11.98;68.34
77590;BME280;66746;51.328;12.332;2023-03-14T09:33:30;98095.66;;;11.86;67.71
77590;BME280;66746;51.328;12.332;2023-03-14T09:35:58;98096.53;;;11.98;69.57
77590;BME280;66746;51.328;12.332;2023-03-14T09:38:30;98105.03;;;12.04;67.56
77590;BME280;66746;51.328;12.332;2023-03-14T09:41:01;98105.53;;;12.09;67.01
77590;BME280;66746;51.328;12.332;2023-03-14T09:43:35;98084.91;;;12.07;67.80
77590;BME280;66746;51.328;12.332;2023-03-14T09:46:03;98098.28;;;12.10;67.61
77590;BME280;66746;51.328;12.332;2023-03-14T09:48:32;98106.66;;;12.29;67.20
77590;BME280;66746;51.328;12.332;2023-03-14T09:51:10;98088.25;;;12.32;66.46
77590;BME280;66746;51.328;12.332;2023-03-14T09:53:44;98084.66;;;12.32;66.22
77590;BME280;66746;51.328;12.332;2023-03-14T09:56:19;98093.06;;;12.40;65.50
77590;BME280;66746;51.328;12.332;2023-03-14T09:59:05;98110.72;;;12.45;65.33
77590;BME280;66746;51.328;12.332;2023-03-14T10:01:37;98095.53;;;12.32;65.96
77590;BME280;66746;51.328;12.332;2023-03-14T10:04:10;98117.66;;;12.38;65.92
77590;BME280;66746;51.328;12.332;2023-03-14T10:06:37;98101.22;;;12.40;66.65
77590;BME280;66746;51.328;12.332;2023-03-14T10:09:04;98088.38;;;12.42;65.63
77590;BME280;66746;51.328;12.332;2023-03-14T10:11:31;98125.66;;;12.51;66.14
77590;BME280;66746;51.328;12.332;2023-03-14T10:14:12;98086.63;;;12.30;65.59
77590;BME280;66746;51.328;12.332;2023-03-14T10:17:06;98103.31;;;12.36;65.17
77590;BME280;66746;51.328;12.332;2023-03-14T10:19:37;98078.13;;;12.12;66.27
77590;BME280;66746;51.328;12.332;2023-03-14T10:22:18;98087.88;;;12.15;66.67
77590;BME280;66746;51.328;12.332;2023-03-14T10:24:54;98105.66;;;12.30;65.28
77590;BME280;66746;51.328;12.332;2023-03-14T10:27:36;98102.22;;;12.39;64.70
77590;BME280;66746;51.328;12.332;2023-03-14T10:30:33;98084.31;;;12.25;66.39
77590;BME280;66746;51.328;12.332;2023-03-14T10:33:20;98068.97;;;12.35;65.91
77590;BME280;66746;51.328;12.332;2023-03-14T10:35:54;98072.03;;;12.53;64.82
77590;BME280;66746;51.328;12.332;2023-03-14T10:38:33;98097.00;;;12.80;63.92
77590;BME280;66746;51.328;12.332;2023-03-14T10:41:14;98082.38;;;12.81;64.73
77590;BME280;66746;51.328;12.332;2023-03-14T10:44:04;98080.88;;;12.88;63.81
77590;BME280;66746;51.328;12.332;2023-03-14T10:47:03;98108.34;;;12.85;64.18
77590;BME280;66746;51.328;12.332;2023-03-14T10:49:37;98090.06;;;12.65;63.53
77590;BME280;66746;51.328;12.332;2023-03-14T10:52:19;98076.38;;;12.56;64.27
77590;BME280;66746;51.328;12.332;2023-03-14T10:54:49;98070.31;;;12.52;65.38
77590;BME280;66746;51.328;12.332;2023-03-14T10:57:38;98092.53;;;12.79;64.66
77590;BME280;66746;51.328;12.332;2023-03-14T11:00:11;98083.91;;;12.63;63.19
77590;BME280;66746;51.328;12.332;2023-03-14T11:02:52;98088.34;;;12.53;65.02
77590;BME280;66746;51.328;12.332;2023-03-14T11:05:40;98097.66;;;12.51;64.68
77590;BME280;66746;51.328;12.332;2023-03-14T11:08:46;98115.81;;;12.50;66.39
77590;BME280;66746;51.328;12.332;2023-03-14T11:11:34;98093.34;;;12.37;65.79
77590;BME280;66746;51.328;12.332;2023-03-14T11:14:14;98110.84;;;12.44;67.47
77590;BME280;66746;51.328;12.332;2023-03-14T11:19:41;98121.47;;;12.69;66.68
77590;BME280;66746;51.328;12.332;2023-03-14T11:22:20;98115.28;;;12.78;66.11
77590;BME280;66746;51.328;12.332;2023-03-14T11:25:07;98092.06;;;12.52;65.55
77590;BME280;66746;51.328;12.332;2023-03-14T11:27:48;98100.72;;;12.57;66.15
77590;BME280;66746;51.328;12.332;2023-03-14T11:30:39;98116.03;;;12.69;66.30
77590;BME280;66746;51.328;12.332;2023-03-14T11:33:15;98108.13;;;12.66;65.84
77590;BME280;66746;51.328;12.332;2023-03-14T11:36:07;98100.44;;;12.82;66.70
77590;BME280;66746;51.328;12.332;2023-03-14T11:38:46;98102.91;;;12.85;66.45
77590;BME280;66746;51.328;12.332;2023-03-14T11:41:32;98081.16;;;12.85;65.68
77590;BME280;66746;51.328;12.332;2023-03-14T11:44:08;98105.06;;;13.24;65.32
77590;BME280;66746;51.328;12.332;2023-03-14T11:46:43;98105.88;;;13.36;64.11
77590;BME280;66746;51.328;12.332;2023-03-14T11:49:17;98112.44;;;13.33;64.46
77590;BME280;66746;51.328;12.332;2023-03-14T11:52:08;98100.56;;;13.35;64.03
77590;BME280;66746;51.328;12.332;2023-03-14T11:54:43;98086.34;;;13.31;64.98
77590;BME280;66746;51.328;12.332;2023-03-14T11:57:20;98086.22;;;13.32;63.43
77590;BME280;66746;51.328;12.332;2023-03-14T11:59:52;98082.56;;;13.00;63.93
77590;BME280;66746;51.328;12.332;2023-03-14T12:02:35;98108.56;;;13.15;65.72
77590;BME280;66746;51.328;12.332;2023-03-14T12:05:40;98098.19;;;12.87;65.04
77590;BME280;66746;51.328;12.332;2023-03-14T12:11:19;98107.31;;;13.08;65.57
77590;BME280;66746;51.328;12.332;2023-03-14T12:13:49;98080.16;;;12.86;66.11
77590;BME280;66746;51.328;12.332;2023-03-14T12:16:31;98090.78;;;12.89;64.71
77590;BME280;66746;51.328;12.332;2023-03-14T12:19:04;98093.78;;;12.75;65.69
77590;BME280;66746;51.328;12.332;2023-03-14T12:21:49;98101.56;;;12.80;65.84
77590;BME280;66746;51.328;12.332;2023-03-14T12:24:19;98096.50;;;12.75;66.75
77590;BME280;66746;51.328;12.332;2023-03-14T12:26:52;98091.09;;;12.42;71.58
77590;BME280;66746;51.328;12.332;2023-03-14T12:29:19;98113.59;;;12.33;73.68
77590;BME280;66746;51.328;12.332;2023-03-14T12:31:46;98101.47;;;12.26;74.56
77590;BME280;66746;51.328;12.332;2023-03-14T12:34:30;98089.88;;;12.35;74.52
77590;BME280;66746;51.328;12.332;2023-03-14T12:37:12;98078.00;;;12.47;72.05
77590;BME280;66746;51.328;12.332;2023-03-14T12:42:43;98070.72;;;12.90;69.60
77590;BME280;66746;51.328;12.332;2023-03-14T12:45:22;98084.56;;;13.09;69.14
77590;BME280;66746;51.328;12.332;2023-03-14T12:48:10;98067.97;;;13.12;68.06
77590;BME280;66746;51.328;12.332;2023-03-14T12:50:42;98070.84;;;13.00;69.75
77590;BME280;66746;51.328;12.332;2023-03-14T12:53:44;98055.38;;;13.00;69.75
77590;BME280;66746;51.328;12.332;2023-03-14T12:56:38;98060.84;;;12.89;67.93
77590;BME280;66746;51.328;12.332;2023-03-14T12:59:24;98043.94;;;12.75;68.15
77590;BME280;66746;51.328;12.332;2023-03-14T13:02:01;98066.56;;;12.75;69.27
77590;BME280;66746;51.328;12.332;2023-03-14T13:04:33;98028.78;;;12.61;68.45
77590;BME280;66746;51.328;12.332;2023-03-14T13:07:11;98041.13;;;12.65;67.13
77590;BME280;66746;51.328;12.332;2023-03-14T13:12:46;98047.75;;;12.83;66.02
77590;BME280;66746;51.328;12.332;2023-03-14T13:15:22;98031.22;;;12.86;65.07
77590;BME280;66746;51.328;12.332;2023-03-14T13:18:02;98017.28;;;13.00;65.05
77590;BME280;66746;51.328;12.332;2023-03-14T13:20:31;98012.13;;;12.97;65.23
77590;BME280;66746;51.328;12.332;2023-03-14T13:22:59;98025.97;;;13.05;65.57
77590;BME280;66746;51.328;12.332;2023-03-14T13:25:29;98016.03;;;13.15;64.60
77590;BME280;66746;51.328;12.332;2023-03-14T13:28:01;98025.38;;;13.22;65.12
77590;BME280;66746;51.328;12.332;2023-03-14T13:30:38;98024.41;;;13.23;64.37
77590;BME280;66746;51.328;12.332;2023-03-14T13:33:06;98006.94;;;13.26;63.06
77590;BME280;66746;51.328;12.332;2023-03-14T13:35:40;98018.81;;;13.25;63.35
77590;BME280;66746;51.328;12.332;2023-03-14T13:38:15;98019.56;;;13.68;62.72